sensor_id;sensor_type;location;lat;lon;timestamp;pressure;altitude;pressure_sealevel;temperature;humidity
40245;BME280;25963;42.694;23.600;2023-01-27T00:01:39;94389.41;;;-0.11;100.00
40245;BME280;25963;42.694;23.600;2023-01-27T00:04:04;94387.31;;;-0.16;100.00
40245;BME280;25963;42.694;23.600;2023-01-27T00:06:30;94384.13;;;-0.26;100.00
40245;BME280;25963;42.694;23.600;2023-01-27T00:08:55;94393.50;;;-0.25;100.00
40245;BME280;25963;42.694;23.600;2023-01-27T00:11:20;94385.25;;;-0.20;100.00
40245;BME280;25963;42.694;23.600;2023-01-27T00:14:04;94373.63;;;-0.33;100.00
40245;BME280;25963;42.694;23.600;2023-01-27T00:16:30;94389.34;;;-0.34;100.00
40245;BME280;25963;42.694;23.600;2023-01-27T00:18:55;94372.53;;;-0.38;100.00
40245;BME280;25963;42.694;23.600;2023-01-27T00:21:20;94366.03;;;-0.34;100.00
40245;BME280;25963;42.694;23.600;2023-01-27T00:24:04;94357.44;;;-0.35;100.00
40245;BME280;25963;42.694;23.600;2023-01-27T00:26:48;94341.97;;;-0.51;100.00
40245;BME280;25963;42.694;23.600;2023-01-27T00:29:13;94359.06;;;-0.42;100.00
40245;BME280;25963;42.694;23.600;2023-01-27T00:31:39;94345.66;;;-0.46;100.00
40245;BME280;25963;42.694;23.600;2023-01-27T00:34:23;94352.94;;;-0.41;100.00
40245;BME280;25963;42.694;23.600;2023-01-27T00:36:48;94350.50;;;-0.42;100.00
40245;BME280;25963;42.694;23.600;2023-01-27T00:39:14;94357.31;;;-0.41;100.00
40245;BME280;25963;42.694;23.600;2023-01-27T00:41:39;94354.41;;;-0.47;100.00
40245;BME280;25963;42.694;23.600;2023-01-27T00:44:05;94359.41;;;-0.45;100.00
40245;BME280;25963;42.694;23.600;2023-01-27T00:46:31;94370.63;;;-0.53;100.00
40245;BME280;25963;42.694;23.600;2023-01-27T00:48:57;94359.06;;;-0.42;100.00
40245;BME280;25963;42.694;23.600;2023-01-27T00:51:23;94374.06;;;-0.60;100.00
40245;BME280;25963;42.694;23.600;2023-01-27T00:53:48;94360.31;;;-0.61;100.00
40245;BME280;25963;42.694;23.600;2023-01-27T00:56:14;94383.16;;;-0.73;100.00
40245;BME280;25963;42.694;23.600;2023-01-27T00:58:40;94384.97;;;-0.73;100.00
40245;BME280;25963;42.694;23.600;2023-01-27T01:01:08;94392.53;;;-0.63;100.00
40245;BME280;25963;42.694;23.600;2023-01-27T01:03:35;94379.44;;;-0.70;100.00
40245;BME280;25963;42.694;23.600;2023-01-27T01:06:04;94382.56;;;-0.75;100.00
40245;BME280;25963;42.694;23.600;2023-01-27T01:08:31;94380.44;;;-0.71;100.00
40245;BME280;25963;42.694;23.600;2023-01-27T01:10:57;94369.41;;;-0.65;100.00
40245;BME280;25963;42.694;23.600;2023-01-27T01:13:23;94371.81;;;-0.63;100.00
40245;BME280;25963;42.694;23.600;2023-01-27T01:15:49;94363.41;;;-0.65;100.00
40245;BME280;25963;42.694;23.600;2023-01-27T01:18:15;94372.78;;;-0.64;100.00
40245;BME280;25963;42.694;23.600;2023-01-27T01:20:44;94370.09;;;-0.79;100.00
40245;BME280;25963;42.694;23.600;2023-01-27T01:23:11;94364.72;;;-0.70;100.00
40245;BME280;25963;42.694;23.600;2023-01-27T01:25:37;94349.63;;;-0.66;100.00
40245;BME280;25963;42.694;23.600;2023-01-27T01:28:03;94349.34;;;-0.71;100.00
40245;BME280;25963;42.694;23.600;2023-01-27T01:30:30;94336.41;;;-0.71;100.00
40245;BME280;25963;42.694;23.600;2023-01-27T01:32:58;94343.19;;;-0.70;100.00
40245;BME280;25963;42.694;23.600;2023-01-27T01:35:24;94352.06;;;-0.64;100.00
40245;BME280;25963;42.694;23.600;2023-01-27T01:37:50;94340.69;;;-0.55;100.00
40245;BME280;25963;42.694;23.600;2023-01-27T01:40:17;94351.69;;;-0.53;100.00
40245;BME280;25963;42.694;23.600;2023-01-27T01:42:51;94380.81;;;-0.51;100.00
40245;BME280;25963;42.694;23.600;2023-01-27T01:48:06;94385.53;;;-0.55;100.00
40245;BME280;25963;42.694;23.600;2023-01-27T01:50:33;94375.03;;;-0.22;100.00
40245;BME280;25963;42.694;23.600;2023-01-27T01:53:01;94369.00;;;0.09;100.00
40245;BME280;25963;42.694;23.600;2023-01-27T01:55:29;94361.13;;;0.25;100.00
40245;BME280;25963;42.694;23.600;2023-01-27T01:57:56;94356.50;;;0.35;100.00
40245;BME280;25963;42.694;23.600;2023-01-27T02:00:21;94354.66;;;0.44;100.00
40245;BME280;25963;42.694;23.600;2023-01-27T02:02:49;94345.16;;;0.36;100.00
40245;BME280;25963;42.694;23.600;2023-01-27T02:05:16;94332.53;;;0.10;100.00
40245;BME280;25963;42.694;23.600;2023-01-27T02:10:22;94304.69;;;0.27;100.00
40245;BME280;25963;42.694;23.600;2023-01-27T02:12:47;94287.56;;;0.18;100.00
40245;BME280;25963;42.694;23.600;2023-01-27T02:15:13;94292.13;;;0.16;100.00
40245;BME280;25963;42.694;23.600;2023-01-27T02:17:39;94290.38;;;0.31;100.00
40245;BME280;25963;42.694;23.600;2023-01-27T02:20:42;94281.84;;;0.45;100.00
40245;BME280;25963;42.694;23.600;2023-01-27T02:26:07;94295.28;;;0.64;100.00
40245;BME280;25963;42.694;23.600;2023-01-27T02:28:34;94281.94;;;0.67;100.00
40245;BME280;25963;42.694;23.600;2023-01-27T02:30:59;94279.06;;;0.62;100.00
40245;BME280;25963;42.694;23.600;2023-01-27T02:33:25;94281.22;;;0.58;100.00
40245;BME280;25963;42.694;23.600;2023-01-27T02:36:06;94289.50;;;0.39;100.00
40245;BME280;25963;42.694;23.600;2023-01-27T02:38:42;94280.91;;;0.38;100.00
40245;BME280;25963;42.694;23.600;2023-01-27T02:41:13;94286.03;;;0.47;100.00
40245;BME280;25963;42.694;23.600;2023-01-27T02:43:40;94293.66;;;0.48;100.00
40245;BME280;25963;42.694;23.600;2023-01-27T02:46:05;94305.69;;;0.41;100.00
40245;BME280;25963;42.694;23.600;2023-01-27T02:48:31;94306.41;;;0.12;100.00
40245;BME280;25963;42.694;23.600;2023-01-27T02:50:56;94315.44;;;0.24;100.00
40245;BME280;25963;42.694;23.600;2023-01-27T02:53:22;94309.00;;;0.35;100.00
40245;BME280;25963;42.694;23.600;2023-01-27T02:55:47;94306.94;;;0.30;100.00
40245;BME280;25963;42.694;23.600;2023-01-27T02:58:12;94303.41;;;0.23;100.00
40245;BME280;25963;42.694;23.600;2023-01-27T03:00:41;94302.56;;;0.31;100.00
40245;BME280;25963;42.694;23.600;2023-01-27T03:03:07;94290.34;;;0.16;100.00
40245;BME280;25963;42.694;23.600;2023-01-27T03:05:32;94303.19;;;0.48;100.00
40245;BME280;25963;42.694;23.600;2023-01-27T03:07:58;94290.00;;;0.57;100.00
40245;BME280;25963;42.694;23.600;2023-01-27T03:10:23;94276.56;;;0.68;100.00
40245;BME280;25963;42.694;23.600;2023-01-27T03:12:48;94282.03;;;0.59;100.00
40245;BME280;25963;42.694;23.600;2023-01-27T03:15:14;94276.19;;;0.72;100.00
40245;BME280;25963;42.694;23.600;2023-01-27T03:18:08;94270.22;;;0.71;100.00
40245;BME280;25963;42.694;23.600;2023-01-27T03:20:43;94275.66;;;0.61;100.00
40245;BME280;25963;42.694;23.600;2023-01-27T03:23:09;94279.63;;;0.72;100.00
40245;BME280;25963;42.694;23.600;2023-01-27T03:25:35;94273.44;;;0.73;100.00
40245;BME280;25963;42.694;23.600;2023-01-27T03:28:01;94256.97;;;0.81;100.00
40245;BME280;25963;42.694;23.600;2023-01-27T03:30:27;94245.25;;;0.70;100.00
40245;BME280;25963;42.694;23.600;2023-01-27T03:32:53;94244.53;;;0.76;100.00
40245;BME280;25963;42.694;23.600;2023-01-27T03:35:19;94242.22;;;0.81;100.00
40245;BME280;25963;42.694;23.600;2023-01-27T03:37:47;94235.75;;;0.77;100.00
40245;BME280;25963;42.694;23.600;2023-01-27T03:40:31;94225.34;;;0.77;100.00
40245;BME280;25963;42.694;23.600;2023-01-27T03:43:15;94242.81;;;0.98;100.00
40245;BME280;25963;42.694;23.600;2023-01-27T03:46:00;94222.22;;;0.97;100.00
40245;BME280;25963;42.694;23.600;2023-01-27T03:48:47;94218.66;;;0.83;100.00
40245;BME280;25963;42.694;23.600;2023-01-27T03:51:14;94220.59;;;0.96;100.00
40245;BME280;25963;42.694;23.600;2023-01-27T03:53:39;94220.78;;;1.09;100.00
40245;BME280;25963;42.694;23.600;2023-01-27T03:56:05;94221.22;;;1.12;100.00
40245;BME280;25963;42.694;23.600;2023-01-27T03:58:32;94228.63;;;1.16;100.00
40245;BME280;25963;42.694;23.600;2023-01-27T04:03:28;94230.03;;;0.97;100.00
40245;BME280;25963;42.694;23.600;2023-01-27T04:06:18;94270.66;;;0.89;100.00
40245;BME280;25963;42.694;23.600;2023-01-27T04:09:04;94301.47;;;0.25;100.00
40245;BME280;25963;42.694;23.600;2023-01-27T04:11:30;94299.22;;;0.22;100.00
40245;BME280;25963;42.694;23.600;2023-01-27T04:14:14;94295.72;;;0.30;100.00
40245;BME280;25963;42.694;23.600;2023-01-27T04:16:40;94284.41;;;0.31;100.00
40245;BME280;25963;42.694;23.600;2023-01-27T04:19:07;94276.06;;;0.35;100.00
40245;BME280;25963;42.694;23.600;2023-01-27T04:21:33;94276.25;;;0.34;100.00
40245;BME280;25963;42.694;23.600;2023-01-27T04:23:59;94284.84;;;0.34;100.00
40245;BME280;25963;42.694;23.600;2023-01-27T04:26:26;94289.69;;;0.37;100.00
40245;BME280;25963;42.694;23.600;2023-01-27T04:28:58;94305.88;;;0.39;100.00
40245;BME280;25963;42.694;23.600;2023-01-27T04:31:24;94319.13;;;0.44;100.00
40245;BME280;25963;42.694;23.600;2023-01-27T04:33:49;94329.34;;;0.46;100.00
40245;BME280;25963;42.694;23.600;2023-01-27T04:36:15;94327.25;;;0.41;100.00
40245;BME280;25963;42.694;23.600;2023-01-27T04:38:41;94317.00;;;0.48;100.00
40245;BME280;25963;42.694;23.600;2023-01-27T04:41:06;94325.81;;;0.39;100.00
40245;BME280;25963;42.694;23.600;2023-01-27T04:43:31;94320.78;;;-0.01;100.00
40245;BME280;25963;42.694;23.600;2023-01-27T04:45:57;94324.97;;;0.23;100.00
40245;BME280;25963;42.694;23.600;2023-01-27T04:48:22;94327.25;;;0.41;100.00
40245;BME280;25963;42.694;23.600;2023-01-27T04:50:48;94324.44;;;0.51;100.00
40245;BME280;25963;42.694;23.600;2023-01-27T04:53:13;94319.75;;;0.47;100.00
40245;BME280;25963;42.694;23.600;2023-01-27T04:55:44;94326.13;;;0.59;100.00
40245;BME280;25963;42.694;23.600;2023-01-27T04:58:12;94315.78;;;0.36;100.00
40245;BME280;25963;42.694;23.600;2023-01-27T05:00:37;94317.72;;;0.42;100.00
40245;BME280;25963;42.694;23.600;2023-01-27T05:03:03;94325.94;;;0.45;100.00
40245;BME280;25963;42.694;23.600;2023-01-27T05:05:33;94321.09;;;0.42;100.00
40245;BME280;25963;42.694;23.600;2023-01-27T05:08:06;94308.94;;;0.43;100.00
40245;BME280;25963;42.694;23.600;2023-01-27T05:10:31;94312.63;;;0.49;100.00
40245;BME280;25963;42.694;23.600;2023-01-27T05:12:58;94300.59;;;0.48;100.00
40245;BME280;25963;42.694;23.600;2023-01-27T05:15:24;94306.09;;;0.53;100.00
40245;BME280;25963;42.694;23.600;2023-01-27T05:17:49;94283.38;;;0.55;100.00
40245;BME280;25963;42.694;23.600;2023-01-27T05:20:15;94290.78;;;0.58;100.00
40245;BME280;25963;42.694;23.600;2023-01-27T05:22:40;94294.72;;;0.54;100.00
40245;BME280;25963;42.694;23.600;2023-01-27T05:25:07;94291.84;;;0.49;100.00
40245;BME280;25963;42.694;23.600;2023-01-27T05:27:32;94297.41;;;0.45;100.00
40245;BME280;25963;42.694;23.600;2023-01-27T05:29:58;94287.03;;;0.45;100.00
40245;BME280;25963;42.694;23.600;2023-01-27T05:32:23;94285.50;;;0.36;100.00
40245;BME280;25963;42.694;23.600;2023-01-27T05:34:49;94286.81;;;0.32;100.00
40245;BME280;25963;42.694;23.600;2023-01-27T05:37:14;94273.03;;;0.32;100.00
40245;BME280;25963;42.694;23.600;2023-01-27T05:39:40;94283.69;;;0.37;100.00
40245;BME280;25963;42.694;23.600;2023-01-27T05:42:05;94281.38;;;0.42;100.00
40245;BME280;25963;42.694;23.600;2023-01-27T05:44:30;94275.09;;;0.36;100.00
40245;BME280;25963;42.694;23.600;2023-01-27T05:46:56;94283.97;;;0.42;100.00
40245;BME280;25963;42.694;23.600;2023-01-27T05:49:21;94286.22;;;0.45;100.00
40245;BME280;25963;42.694;23.600;2023-01-27T05:51:47;94281.13;;;0.52;100.00
40245;BME280;25963;42.694;23.600;2023-01-27T05:54:12;94284.06;;;0.49;100.00
40245;BME280;25963;42.694;23.600;2023-01-27T05:56:37;94277.78;;;0.43;100.00
40245;BME280;25963;42.694;23.600;2023-01-27T05:59:04;94278.44;;;0.60;100.00
40245;BME280;25963;42.694;23.600;2023-01-27T06:01:32;94283.75;;;0.66;100.00
40245;BME280;25963;42.694;23.600;2023-01-27T06:03:58;94285.25;;;0.61;100.00
40245;BME280;25963;42.694;23.600;2023-01-27T06:06:26;94298.50;;;0.66;100.00
40245;BME280;25963;42.694;23.600;2023-01-27T06:08:52;94301.72;;;0.68;100.00
40245;BME280;25963;42.694;23.600;2023-01-27T06:11:18;94298.59;;;0.73;100.00
40245;BME280;25963;42.694;23.600;2023-01-27T06:13:45;94301.34;;;0.71;100.00
40245;BME280;25963;42.694;23.600;2023-01-27T06:16:12;94299.41;;;0.73;100.00
40245;BME280;25963;42.694;23.600;2023-01-27T06:18:39;94293.06;;;0.76;100.00
40245;BME280;25963;42.694;23.600;2023-01-27T06:21:07;94298.69;;;0.79;100.00
40245;BME280;25963;42.694;23.600;2023-01-27T06:23:33;94303.88;;;0.79;100.00
40245;BME280;25963;42.694;23.600;2023-01-27T06:26:13;94304.41;;;0.75;100.00
40245;BME280;25963;42.694;23.600;2023-01-27T06:28:40;94305.59;;;0.72;100.00
40245;BME280;25963;42.694;23.600;2023-01-27T06:31:12;94297.81;;;0.72;100.00
40245;BME280;25963;42.694;23.600;2023-01-27T06:33:38;94301.28;;;0.79;100.00
40245;BME280;25963;42.694;23.600;2023-01-27T06:36:06;94305.75;;;0.85;100.00
40245;BME280;25963;42.694;23.600;2023-01-27T06:38:33;94306.13;;;0.97;100.00
40245;BME280;25963;42.694;23.600;2023-01-27T06:40:59;94305.41;;;1.03;100.00
40245;BME280;25963;42.694;23.600;2023-01-27T06:43:25;94308.09;;;0.95;100.00
40245;BME280;25963;42.694;23.600;2023-01-27T06:45:52;94315.00;;;1.03;100.00
40245;BME280;25963;42.694;23.600;2023-01-27T06:48:18;94322.25;;;1.07;100.00
40245;BME280;25963;42.694;23.600;2023-01-27T06:50:43;94331.75;;;1.15;100.00
40245;BME280;25963;42.694;23.600;2023-01-27T06:53:09;94335.88;;;1.09;100.00
40245;BME280;25963;42.694;23.600;2023-01-27T06:55:35;94317.41;;;1.19;100.00
40245;BME280;25963;42.694;23.600;2023-01-27T06:58:08;94327.34;;;1.30;100.00
40245;BME280;25963;42.694;23.600;2023-01-27T07:00:35;94324.66;;;1.39;100.00
40245;BME280;25963;42.694;23.600;2023-01-27T07:03:01;94336.22;;;1.36;100.00
40245;BME280;25963;42.694;23.600;2023-01-27T07:05:27;94334.31;;;1.45;100.00
40245;BME280;25963;42.694;23.600;2023-01-27T07:07:52;94334.13;;;1.46;100.00
40245;BME280;25963;42.694;23.600;2023-01-27T07:10:17;94330.81;;;1.37;100.00
40245;BME280;25963;42.694;23.600;2023-01-27T07:12:43;94328.03;;;1.54;100.00
40245;BME280;25963;42.694;23.600;2023-01-27T07:15:09;94325.19;;;1.34;100.00
40245;BME280;25963;42.694;23.600;2023-01-27T07:17:35;94329.75;;;1.47;100.00
40245;BME280;25963;42.694;23.600;2023-01-27T07:20:02;94337.06;;;1.58;100.00
40245;BME280;25963;42.694;23.600;2023-01-27T07:22:27;94321.31;;;1.59;100.00
40245;BME280;25963;42.694;23.600;2023-01-27T07:24:53;94325.78;;;1.66;100.00
40245;BME280;25963;42.694;23.600;2023-01-27T07:27:23;94316.44;;;1.71;100.00
40245;BME280;25963;42.694;23.600;2023-01-27T07:29:48;94323.88;;;1.74;100.00
40245;BME280;25963;42.694;23.600;2023-01-27T07:32:14;94321.59;;;1.86;100.00
40245;BME280;25963;42.694;23.600;2023-01-27T07:34:40;94321.66;;;1.93;100.00
40245;BME280;25963;42.694;23.600;2023-01-27T07:37:05;94324.59;;;2.04;100.00
40245;BME280;25963;42.694;23.600;2023-01-27T07:39:31;94324.28;;;2.14;100.00
40245;BME280;25963;42.694;23.600;2023-01-27T07:41:58;94327.31;;;2.18;100.00
40245;BME280;25963;42.694;23.600;2023-01-27T07:44:26;94333.19;;;2.26;100.00
40245;BME280;25963;42.694;23.600;2023-01-27T07:46:51;94336.44;;;2.28;100.00
40245;BME280;25963;42.694;23.600;2023-01-27T07:49:17;94333.88;;;2.35;100.00
40245;BME280;25963;42.694;23.600;2023-01-27T07:51:42;94334.88;;;2.34;100.00
40245;BME280;25963;42.694;23.600;2023-01-27T07:54:08;94332.06;;;2.36;100.00
40245;BME280;25963;42.694;23.600;2023-01-27T07:56:34;94330.19;;;2.51;100.00
40245;BME280;25963;42.694;23.600;2023-01-27T07:59:01;94333.44;;;2.53;100.00
40245;BME280;25963;42.694;23.600;2023-01-27T08:01:26;94339.88;;;2.57;100.00
40245;BME280;25963;42.694;23.600;2023-01-27T08:03:52;94344.34;;;2.63;100.00
40245;BME280;25963;42.694;23.600;2023-01-27T08:06:17;94348.88;;;2.55;100.00
40245;BME280;25963;42.694;23.600;2023-01-27T08:08:43;94350.94;;;2.38;100.00
40245;BME280;25963;42.694;23.600;2023-01-27T08:11:11;94348.94;;;2.40;100.00
40245;BME280;25963;42.694;23.600;2023-01-27T08:13:37;94346.41;;;2.46;100.00
40245;BME280;25963;42.694;23.600;2023-01-27T08:16:04;94335.56;;;2.43;100.00
40245;BME280;25963;42.694;23.600;2023-01-27T08:18:31;94337.88;;;2.59;100.00
40245;BME280;25963;42.694;23.600;2023-01-27T08:21:02;94342.84;;;2.54;100.00
40245;BME280;25963;42.694;23.600;2023-01-27T08:23:28;94347.81;;;2.49;100.00
40245;BME280;25963;42.694;23.600;2023-01-27T08:25:55;94343.59;;;2.69;100.00
40245;BME280;25963;42.694;23.600;2023-01-27T08:28:22;94346.69;;;2.58;100.00
40245;BME280;25963;42.694;23.600;2023-01-27T08:30:48;94338.97;;;2.71;100.00
40245;BME280;25963;42.694;23.600;2023-01-27T08:33:18;94336.53;;;2.63;100.00
40245;BME280;25963;42.694;23.600;2023-01-27T08:35:45;94337.75;;;2.67;100.00
40245;BME280;25963;42.694;23.600;2023-01-27T08:38:12;94342.00;;;2.75;100.00
40245;BME280;25963;42.694;23.600;2023-01-27T08:40:39;94337.75;;;2.67;100.00
40245;BME280;25963;42.694;23.600;2023-01-27T08:43:05;94340.00;;;2.49;100.00
40245;BME280;25963;42.694;23.600;2023-01-27T08:45:32;94341.03;;;2.76;100.00
40245;BME280;25963;42.694;23.600;2023-01-27T08:47:58;94342.88;;;2.82;100.00
40245;BME280;25963;42.694;23.600;2023-01-27T08:50:24;94348.25;;;3.02;100.00
40245;BME280;25963;42.694;23.600;2023-01-27T08:52:50;94348.97;;;2.96;100.00
40245;BME280;25963;42.694;23.600;2023-01-27T08:55:16;94352.06;;;3.06;100.00
40245;BME280;25963;42.694;23.600;2023-01-27T08:57:41;94350.56;;;2.90;100.00
40245;BME280;25963;42.694;23.600;2023-01-27T09:00:08;94349.19;;;2.66;100.00
40245;BME280;25963;42.694;23.600;2023-01-27T09:02:34;94348.97;;;2.68;100.00
40245;BME280;25963;42.694;23.600;2023-01-27T09:04:59;94351.91;;;2.58;100.00
40245;BME280;25963;42.694;23.600;2023-01-27T09:07:25;94350.06;;;2.52;100.00
40245;BME280;25963;42.694;23.600;2023-01-27T09:09:50;94335.72;;;2.63;100.00
40245;BME280;25963;42.694;23.600;2023-01-27T09:12:16;94336.28;;;2.58;100.00
40245;BME280;25963;42.694;23.600;2023-01-27T09:14:41;94319.47;;;2.61;100.00
40245;BME280;25963;42.694;23.600;2023-01-27T09:17:07;94319.31;;;2.69;100.00
40245;BME280;25963;42.694;23.600;2023-01-27T09:19:32;94324.81;;;2.81;100.00
40245;BME280;25963;42.694;23.600;2023-01-27T09:21:58;94321.78;;;2.77;100.00
40245;BME280;25963;42.694;23.600;2023-01-27T09:24:23;94331.41;;;2.77;100.00
40245;BME280;25963;42.694;23.600;2023-01-27T09:26:49;94325.06;;;2.86;100.00
40245;BME280;25963;42.694;23.600;2023-01-27T09:29:14;94330.78;;;2.74;100.00
40245;BME280;25963;42.694;23.600;2023-01-27T09:31:40;94322.81;;;2.76;100.00
40245;BME280;25963;42.694;23.600;2023-01-27T09:34:05;94320.56;;;2.73;100.00
40245;BME280;25963;42.694;23.600;2023-01-27T09:36:36;94323.41;;;2.78;100.00
40245;BME280;25963;42.694;23.600;2023-01-27T09:39:07;94317.56;;;2.69;100.00
40245;BME280;25963;42.694;23.600;2023-01-27T09:55:15;94293.34;;;2.76;100.00
40245;BME280;25963;42.694;23.600;2023-01-27T10:06:18;94297.22;;;2.86;100.00
40245;BME280;25963;42.694;23.600;2023-01-27T10:17:23;94303.28;;;2.93;100.00
40245;BME280;25963;42.694;23.600;2023-01-27T10:27:56;94301.63;;;2.58;100.00
40245;BME280;25963;42.694;23.600;2023-01-27T10:30:36;94296.84;;;2.61;100.00
40245;BME280;25963;42.694;23.600;2023-01-27T10:35:57;94277.94;;;2.81;100.00
40245;BME280;25963;42.694;23.600;2023-01-27T10:46:15;94259.16;;;2.57;100.00
40245;BME280;25963;42.694;23.600;2023-01-27T10:48:49;94274.84;;;2.64;100.00
40245;BME280;25963;42.694;23.600;2023-01-27T10:51:33;94269.47;;;2.72;100.00
40245;BME280;25963;42.694;23.600;2023-01-27T10:54:17;94262.97;;;2.89;100.00
40245;BME280;25963;42.694;23.600;2023-01-27T10:56:56;94268.41;;;2.94;100.00
40245;BME280;25963;42.694;23.600;2023-01-27T11:02:36;94257.22;;;3.01;100.00
40245;BME280;25963;42.694;23.600;2023-01-27T11:05:08;94262.97;;;2.89;100.00
40245;BME280;25963;42.694;23.600;2023-01-27T11:07:45;94251.44;;;3.05;100.00
40245;BME280;25963;42.694;23.600;2023-01-27T11:10:18;94250.28;;;2.80;100.00
40245;BME280;25963;42.694;23.600;2023-01-27T11:12:50;94250.22;;;2.66;100.00
40245;BME280;25963;42.694;23.600;2023-01-27T11:15:31;94252.91;;;2.80;100.00
40245;BME280;25963;42.694;23.600;2023-01-27T11:18:03;94242.72;;;2.85;100.00
40245;BME280;25963;42.694;23.600;2023-01-27T11:20:41;94242.63;;;3.06;100.00
40245;BME280;25963;42.694;23.600;2023-01-27T11:23:13;94240.41;;;3.03;100.00
40245;BME280;25963;42.694;23.600;2023-01-27T11:28:19;94231.34;;;2.99;100.00
40245;BME280;25963;42.694;23.600;2023-01-27T11:36:09;94234.72;;;2.93;100.00
40245;BME280;25963;42.694;23.600;2023-01-27T11:38:35;94233.22;;;3.05;100.00
40245;BME280;25963;42.694;23.600;2023-01-27T11:41:00;94215.72;;;2.99;100.00
40245;BME280;25963;42.694;23.600;2023-01-27T11:43:27;94235.94;;;2.90;100.00
40245;BME280;25963;42.694;23.600;2023-01-27T11:46:17;94241.47;;;3.15;100.00
40245;BME280;25963;42.694;23.600;2023-01-27T11:48:50;94238.25;;;3.20;100.00
40245;BME280;25963;42.694;23.600;2023-01-27T11:51:22;94238.50;;;3.32;100.00
40245;BME280;25963;42.694;23.600;2023-01-27T11:54:05;94237.97;;;3.02;100.00
40245;BME280;25963;42.694;23.600;2023-01-27T11:56:35;94232.44;;;3.11;100.00
40245;BME280;25963;42.694;23.600;2023-01-27T12:09:49;94229.34;;;3.56;100.00
40245;BME280;25963;42.694;23.600;2023-01-27T12:14:53;94224.59;;;3.66;100.00
40245;BME280;25963;42.694;23.600;2023-01-27T12:17:31;94225.72;;;3.43;100.00
40245;BME280;25963;42.694;23.600;2023-01-27T12:20:02;94223.31;;;3.35;100.00
40245;BME280;25963;42.694;23.600;2023-01-27T12:22:36;94223.97;;;3.64;100.00
40245;BME280;25963;42.694;23.600;2023-01-27T12:25:05;94234.94;;;3.46;100.00
40245;BME280;25963;42.694;23.600;2023-01-27T12:27:39;94231.94;;;3.36;100.00
40245;BME280;25963;42.694;23.600;2023-01-27T12:30:17;94234.91;;;3.33;100.00
40245;BME280;25963;42.694;23.600;2023-01-27T12:32:45;94230.66;;;2.84;100.00
40245;BME280;25963;42.694;23.600;2023-01-27T12:35:23;94234.59;;;3.08;100.00
40245;BME280;25963;42.694;23.600;2023-01-27T12:37:55;94234.03;;;3.12;100.00
40245;BME280;25963;42.694;23.600;2023-01-27T12:40:23;94237.19;;;3.01;100.00
40245;BME280;25963;42.694;23.600;2023-01-27T12:45:32;94223.59;;;3.12;100.00
40245;BME280;25963;42.694;23.600;2023-01-27T12:53:25;94235.59;;;2.72;100.00
40245;BME280;25963;42.694;23.600;2023-01-27T12:56:21;94241.09;;;2.84;100.00
40245;BME280;25963;42.694;23.600;2023-01-27T13:01:21;94232.38;;;2.63;100.00
40245;BME280;25963;42.694;23.600;2023-01-27T13:03:55;94232.28;;;2.50;100.00
40245;BME280;25963;42.694;23.600;2023-01-27T13:06:35;94230.19;;;2.39;100.00
40245;BME280;25963;42.694;23.600;2023-01-27T13:09:01;94228.59;;;2.38;100.00
40245;BME280;25963;42.694;23.600;2023-01-27T13:11:33;94229.59;;;2.37;100.00
40245;BME280;25963;42.694;23.600;2023-01-27T13:14:01;94229.50;;;2.51;100.00
40245;BME280;25963;42.694;23.600;2023-01-27T13:16:28;94223.59;;;2.15;100.00
40245;BME280;25963;42.694;23.600;2023-01-27T13:19:15;94230.72;;;2.27;100.00
40245;BME280;25963;42.694;23.600;2023-01-27T13:21:43;94231.09;;;2.24;100.00
40245;BME280;25963;42.694;23.600;2023-01-27T13:24:14;94222.84;;;2.21;100.00
40245;BME280;25963;42.694;23.600;2023-01-27T13:26:45;94229.38;;;2.10;100.00
40245;BME280;25963;42.694;23.600;2023-01-27T13:29:15;94224.38;;;1.87;100.00
40245;BME280;25963;42.694;23.600;2023-01-27T13:31:56;94214.81;;;1.94;100.00
40245;BME280;25963;42.694;23.600;2023-01-27T13:35:24;94218.69;;;1.98;100.00
40245;BME280;25963;42.694;23.600;2023-01-27T13:37:58;94220.97;;;2.08;100.00
40245;BME280;25963;42.694;23.600;2023-01-27T13:40:36;94215.38;;;2.11;100.00
40245;BME280;25963;42.694;23.600;2023-01-27T13:43:23;94218.47;;;2.00;100.00
40245;BME280;25963;42.694;23.600;2023-01-27T13:45:57;94226.81;;;1.89;100.00
40245;BME280;25963;42.694;23.600;2023-01-27T13:48:32;94228.97;;;2.07;100.00
40245;BME280;25963;42.694;23.600;2023-01-27T13:51:12;94227.63;;;2.17;100.00
40245;BME280;25963;42.694;23.600;2023-01-27T13:53:39;94236.19;;;2.11;100.00
40245;BME280;25963;42.694;23.600;2023-01-27T14:02:00;94242.88;;;2.20;100.00
40245;BME280;25963;42.694;23.600;2023-01-27T14:07:40;94242.75;;;2.28;100.00
40245;BME280;25963;42.694;23.600;2023-01-27T14:13:24;94248.00;;;2.35;100.00
40245;BME280;25963;42.694;23.600;2023-01-27T14:18:33;94252.34;;;2.28;100.00
40245;BME280;25963;42.694;23.600;2023-01-27T14:21:17;94244.00;;;2.39;100.00
40245;BME280;25963;42.694;23.600;2023-01-27T14:27:03;94256.38;;;2.31;100.00
40245;BME280;25963;42.694;23.600;2023-01-27T14:29:26;94251.38;;;2.36;100.00
40245;BME280;25963;42.694;23.600;2023-01-27T14:32:11;94254.78;;;2.08;100.00
40245;BME280;25963;42.694;23.600;2023-01-27T14:37:43;94244.94;;;2.03;100.00
40245;BME280;25963;42.694;23.600;2023-01-27T14:45:27;94261.03;;;1.92;100.00
40245;BME280;25963;42.694;23.600;2023-01-27T14:52:47;94264.44;;;1.93;100.00
40245;BME280;25963;42.694;23.600;2023-01-27T15:01:02;94278.31;;;2.00;100.00
40245;BME280;25963;42.694;23.600;2023-01-27T15:04:03;94274.41;;;1.89;100.00
40245;BME280;25963;42.694;23.600;2023-01-27T15:06:45;94270.75;;;1.83;100.00
40245;BME280;25963;42.694;23.600;2023-01-27T15:09:24;94277.19;;;1.66;100.00
40245;BME280;25963;42.694;23.600;2023-01-27T15:26:00;94264.31;;;1.43;100.00